sensor_id;sensor_type;location;lat;lon;timestamp;temperature;humidity
29453;DHT22;16424;50.956;5.320;2023-02-28T00:00:12;1.40;99.90
29453;DHT22;16424;50.956;5.320;2023-02-28T00:02:39;1.40;99.90
29453;DHT22;16424;50.956;5.320;2023-02-28T00:05:06;1.40;99.90
29453;DHT22;16424;50.956;5.320;2023-02-28T00:07:32;1.40;99.90
29453;DHT22;16424;50.956;5.320;2023-02-28T00:09:58;1.50;99.90
29453;DHT22;16424;50.956;5.320;2023-02-28T00:12:24;1.40;99.90
29453;DHT22;16424;50.956;5.320;2023-02-28T00:14:50;1.40;99.90
29453;DHT22;16424;50.956;5.320;2023-02-28T00:17:16;1.40;99.90
29453;DHT22;16424;50.956;5.320;2023-02-28T00:19:43;1.20;99.90
29453;DHT22;16424;50.956;5.320;2023-02-28T00:22:09;1.20;99.90
29453;DHT22;16424;50.956;5.320;2023-02-28T00:24:35;1.30;99.90
29453;DHT22;16424;50.956;5.320;2023-02-28T00:27:01;1.30;99.90
29453;DHT22;16424;50.956;5.320;2023-02-28T00:29:26;1.30;99.90
29453;DHT22;16424;50.956;5.320;2023-02-28T00:31:52;1.30;99.90
29453;DHT22;16424;50.956;5.320;2023-02-28T00:34:17;1.30;99.90
29453;DHT22;16424;50.956;5.320;2023-02-28T00:36:43;1.20;99.90
29453;DHT22;16424;50.956;5.320;2023-02-28T00:39:11;1.20;99.90
29453;DHT22;16424;50.956;5.320;2023-02-28T00:41:37;1.20;99.90
29453;DHT22;16424;50.956;5.320;2023-02-28T00:44:02;1.20;99.90
29453;DHT22;16424;50.956;5.320;2023-02-28T00:46:28;1.10;99.90
29453;DHT22;16424;50.956;5.320;2023-02-28T00:48:54;1.10;99.90
29453;DHT22;16424;50.956;5.320;2023-02-28T00:51:19;1.00;99.90
29453;DHT22;16424;50.956;5.320;2023-02-28T00:53:45;0.90;99.90
29453;DHT22;16424;50.956;5.320;2023-02-28T00:56:11;1.00;99.90
29453;DHT22;16424;50.956;5.320;2023-02-28T00:58:36;1.00;99.90
29453;DHT22;16424;50.956;5.320;2023-02-28T01:01:02;1.10;99.90
29453;DHT22;16424;50.956;5.320;2023-02-28T01:03:28;1.10;99.90
29453;DHT22;16424;50.956;5.320;2023-02-28T01:05:54;1.10;99.90
29453;DHT22;16424;50.956;5.320;2023-02-28T01:08:20;1.10;99.90
29453;DHT22;16424;50.956;5.320;2023-02-28T01:10:45;1.00;99.90
29453;DHT22;16424;50.956;5.320;2023-02-28T01:13:13;1.00;99.90
29453;DHT22;16424;50.956;5.320;2023-02-28T01:15:45;0.90;99.90
29453;DHT22;16424;50.956;5.320;2023-02-28T01:18:13;0.90;99.90
29453;DHT22;16424;50.956;5.320;2023-02-28T01:20:39;0.80;99.90
29453;DHT22;16424;50.956;5.320;2023-02-28T01:23:04;0.80;99.90
29453;DHT22;16424;50.956;5.320;2023-02-28T01:25:30;0.80;99.90
29453;DHT22;16424;50.956;5.320;2023-02-28T01:27:56;0.80;99.90
29453;DHT22;16424;50.956;5.320;2023-02-28T01:30:21;0.90;99.90
29453;DHT22;16424;50.956;5.320;2023-02-28T01:32:47;0.80;99.90
29453;DHT22;16424;50.956;5.320;2023-02-28T01:35:13;0.80;99.90
29453;DHT22;16424;50.956;5.320;2023-02-28T01:37:38;0.70;99.90
29453;DHT22;16424;50.956;5.320;2023-02-28T01:40:05;0.70;99.90
29453;DHT22;16424;50.956;5.320;2023-02-28T01:42:31;0.60;99.90
29453;DHT22;16424;50.956;5.320;2023-02-28T01:45:08;0.50;99.90
29453;DHT22;16424;50.956;5.320;2023-02-28T01:47:41;0.50;99.90
29453;DHT22;16424;50.956;5.320;2023-02-28T01:50:13;0.50;99.90
29453;DHT22;16424;50.956;5.320;2023-02-28T01:52:40;0.40;99.90
29453;DHT22;16424;50.956;5.320;2023-02-28T01:55:08;0.50;99.90
29453;DHT22;16424;50.956;5.320;2023-02-28T01:57:39;0.50;99.90
29453;DHT22;16424;50.956;5.320;2023-02-28T02:00:15;0.50;99.90
29453;DHT22;16424;50.956;5.320;2023-02-28T02:02:47;0.50;99.90
29453;DHT22;16424;50.956;5.320;2023-02-28T02:05:20;0.40;99.90
29453;DHT22;16424;50.956;5.320;2023-02-28T02:07:48;0.40;99.90
29453;DHT22;16424;50.956;5.320;2023-02-28T02:18:38;0.40;99.90
29453;DHT22;16424;50.956;5.320;2023-02-28T02:32:13;0.30;99.90
29453;DHT22;16424;50.956;5.320;2023-02-28T02:40:15;0.40;99.90
29453;DHT22;16424;50.956;5.320;2023-02-28T02:45:19;0.40;99.90
29453;DHT22;16424;50.956;5.320;2023-02-28T02:47:48;0.30;99.90
29453;DHT22;16424;50.956;5.320;2023-02-28T02:50:22;0.30;99.90
29453;DHT22;16424;50.956;5.320;2023-02-28T02:52:52;0.40;99.90
29453;DHT22;16424;50.956;5.320;2023-02-28T02:55:22;0.30;99.90
29453;DHT22;16424;50.956;5.320;2023-02-28T02:57:52;0.30;99.90
29453;DHT22;16424;50.956;5.320;2023-02-28T03:00:26;0.20;99.90
29453;DHT22;16424;50.956;5.320;2023-02-28T03:02:54;0.20;99.90
29453;DHT22;16424;50.956;5.320;2023-02-28T03:05:32;0.20;99.90
29453;DHT22;16424;50.956;5.320;2023-02-28T03:07:59;0.20;99.90
29453;DHT22;16424;50.956;5.320;2023-02-28T03:10:28;0.20;99.90
29453;DHT22;16424;50.956;5.320;2023-02-28T03:27:17;0.10;99.90
29453;DHT22;16424;50.956;5.320;2023-02-28T03:30:24;0.10;99.90
29453;DHT22;16424;50.956;5.320;2023-02-28T03:33:01;0.10;99.90
29453;DHT22;16424;50.956;5.320;2023-02-28T03:35:34;0.10;99.90
29453;DHT22;16424;50.956;5.320;2023-02-28T03:38:41;0.10;99.90
29453;DHT22;16424;50.956;5.320;2023-02-28T03:43:37;0.10;99.90
29453;DHT22;16424;50.956;5.320;2023-02-28T03:46:09;0.10;99.90
29453;DHT22;16424;50.956;5.320;2023-02-28T03:48:50;0.20;99.90
29453;DHT22;16424;50.956;5.320;2023-02-28T03:51:19;0.20;99.90
29453;DHT22;16424;50.956;5.320;2023-02-28T03:53:53;0.20;99.90
29453;DHT22;16424;50.956;5.320;2023-02-28T03:56:23;0.20;99.90
29453;DHT22;16424;50.956;5.320;2023-02-28T04:01:30;0.30;99.90
29453;DHT22;16424;50.956;5.320;2023-02-28T04:03:57;0.30;99.90
29453;DHT22;16424;50.956;5.320;2023-02-28T04:06:24;0.30;99.90
29453;DHT22;16424;50.956;5.320;2023-02-28T04:08:50;0.30;99.90
29453;DHT22;16424;50.956;5.320;2023-02-28T04:11:23;0.20;99.90
29453;DHT22;16424;50.956;5.320;2023-02-28T04:13:52;0.20;99.90
29453;DHT22;16424;50.956;5.320;2023-02-28T04:16:18;0.20;99.90
29453;DHT22;16424;50.956;5.320;2023-02-28T04:18:43;0.20;99.90
29453;DHT22;16424;50.956;5.320;2023-02-28T04:21:10;0.10;99.90
29453;DHT22;16424;50.956;5.320;2023-02-28T04:23:36;0.20;99.90
29453;DHT22;16424;50.956;5.320;2023-02-28T04:26:02;0.10;99.90
29453;DHT22;16424;50.956;5.320;2023-02-28T04:28:27;0.10;99.90
29453;DHT22;16424;50.956;5.320;2023-02-28T04:31:01;0.10;99.90
29453;DHT22;16424;50.956;5.320;2023-02-28T04:33:27;0.00;99.90
29453;DHT22;16424;50.956;5.320;2023-02-28T04:36:02;0.00;99.90
29453;DHT22;16424;50.956;5.320;2023-02-28T04:38:29;0.00;99.90
29453;DHT22;16424;50.956;5.320;2023-02-28T04:40:57;0.00;99.90
29453;DHT22;16424;50.956;5.320;2023-02-28T04:43:23;0.00;99.90
29453;DHT22;16424;50.956;5.320;2023-02-28T04:45:49;0.00;99.90
29453;DHT22;16424;50.956;5.320;2023-02-28T04:48:14;0.00;99.90
29453;DHT22;16424;50.956;5.320;2023-02-28T04:50:40;0.00;99.90
29453;DHT22;16424;50.956;5.320;2023-02-28T04:53:06;0.10;99.90
29453;DHT22;16424;50.956;5.320;2023-02-28T04:55:31;0.10;99.90
29453;DHT22;16424;50.956;5.320;2023-02-28T04:57:57;0.00;99.90
29453;DHT22;16424;50.956;5.320;2023-02-28T05:00:23;0.00;99.90
29453;DHT22;16424;50.956;5.320;2023-02-28T05:02:48;-0.10;99.90
29453;DHT22;16424;50.956;5.320;2023-02-28T05:05:14;-0.10;99.90
29453;DHT22;16424;50.956;5.320;2023-02-28T05:07:44;-0.20;99.90
29453;DHT22;16424;50.956;5.320;2023-02-28T05:10:10;-0.20;99.90
29453;DHT22;16424;50.956;5.320;2023-02-28T05:12:36;-0.10;99.90
29453;DHT22;16424;50.956;5.320;2023-02-28T05:15:03;-0.20;99.90
29453;DHT22;16424;50.956;5.320;2023-02-28T05:17:30;-0.20;99.90
29453;DHT22;16424;50.956;5.320;2023-02-28T05:19:56;-0.20;99.90
29453;DHT22;16424;50.956;5.320;2023-02-28T05:22:21;-0.20;99.90
29453;DHT22;16424;50.956;5.320;2023-02-28T05:24:47;-0.20;99.90
29453;DHT22;16424;50.956;5.320;2023-02-28T05:27:13;-0.30;99.90
29453;DHT22;16424;50.956;5.320;2023-02-28T05:29:38;-0.30;99.90
29453;DHT22;16424;50.956;5.320;2023-02-28T05:32:11;-0.40;99.90
29453;DHT22;16424;50.956;5.320;2023-02-28T05:34:37;-0.30;99.90
29453;DHT22;16424;50.956;5.320;2023-02-28T05:37:03;-0.30;99.90
29453;DHT22;16424;50.956;5.320;2023-02-28T05:39:29;-0.30;99.90
29453;DHT22;16424;50.956;5.320;2023-02-28T05:41:55;-0.30;99.90
29453;DHT22;16424;50.956;5.320;2023-02-28T05:44:20;-0.30;99.90
29453;DHT22;16424;50.956;5.320;2023-02-28T05:46:46;-0.30;99.90
29453;DHT22;16424;50.956;5.320;2023-02-28T05:49:12;-0.40;99.90
29453;DHT22;16424;50.956;5.320;2023-02-28T05:51:37;-0.40;99.90
29453;DHT22;16424;50.956;5.320;2023-02-28T05:54:05;-0.40;99.90
29453;DHT22;16424;50.956;5.320;2023-02-28T05:56:32;-0.50;99.90
29453;DHT22;16424;50.956;5.320;2023-02-28T05:58:59;-0.40;99.90
29453;DHT22;16424;50.956;5.320;2023-02-28T06:01:42;-0.40;99.90
29453;DHT22;16424;50.956;5.320;2023-02-28T06:04:14;-0.40;99.90
29453;DHT22;16424;50.956;5.320;2023-02-28T06:06:43;-0.40;99.90
29453;DHT22;16424;50.956;5.320;2023-02-28T06:09:10;-0.40;99.90
29453;DHT22;16424;50.956;5.320;2023-02-28T06:11:36;-0.50;99.90
29453;DHT22;16424;50.956;5.320;2023-02-28T06:14:02;-0.50;99.90
29453;DHT22;16424;50.956;5.320;2023-02-28T06:16:29;-0.50;99.90
29453;DHT22;16424;50.956;5.320;2023-02-28T06:18:58;-0.60;99.90
29453;DHT22;16424;50.956;5.320;2023-02-28T06:21:24;-0.60;99.90
29453;DHT22;16424;50.956;5.320;2023-02-28T06:23:50;-0.60;99.90
29453;DHT22;16424;50.956;5.320;2023-02-28T06:26:16;-0.60;99.90
29453;DHT22;16424;50.956;5.320;2023-02-28T06:28:42;-0.60;99.90
29453;DHT22;16424;50.956;5.320;2023-02-28T06:31:09;-0.60;99.90
29453;DHT22;16424;50.956;5.320;2023-02-28T06:33:36;-0.60;99.90
29453;DHT22;16424;50.956;5.320;2023-02-28T06:36:03;-0.60;99.90
29453;DHT22;16424;50.956;5.320;2023-02-28T06:38:29;-0.60;99.90
29453;DHT22;16424;50.956;5.320;2023-02-28T06:40:56;-0.60;99.90
29453;DHT22;16424;50.956;5.320;2023-02-28T06:43:22;-0.60;99.90
29453;DHT22;16424;50.956;5.320;2023-02-28T06:45:48;-0.60;99.90
29453;DHT22;16424;50.956;5.320;2023-02-28T06:48:14;-0.60;99.90
29453;DHT22;16424;50.956;5.320;2023-02-28T06:50:40;-0.50;99.90
29453;DHT22;16424;50.956;5.320;2023-02-28T06:53:05;-0.20;99.90
29453;DHT22;16424;50.956;5.320;2023-02-28T06:55:31;-0.10;99.90
29453;DHT22;16424;50.956;5.320;2023-02-28T06:57:57;0.00;99.90
29453;DHT22;16424;50.956;5.320;2023-02-28T07:00:23;0.20;99.90
29453;DHT22;16424;50.956;5.320;2023-02-28T07:02:50;0.40;99.90
29453;DHT22;16424;50.956;5.320;2023-02-28T07:05:16;0.60;99.90
29453;DHT22;16424;50.956;5.320;2023-02-28T07:07:41;0.80;99.90
29453;DHT22;16424;50.956;5.320;2023-02-28T07:10:11;0.90;99.90
29453;DHT22;16424;50.956;5.320;2023-02-28T07:12:37;1.10;99.90
29453;DHT22;16424;50.956;5.320;2023-02-28T07:15:04;1.40;99.90
29453;DHT22;16424;50.956;5.320;2023-02-28T07:17:30;1.50;99.90
29453;DHT22;16424;50.956;5.320;2023-02-28T07:19:55;1.90;99.90
29453;DHT22;16424;50.956;5.320;2023-02-28T07:22:21;2.30;99.90
29453;DHT22;16424;50.956;5.320;2023-02-28T07:24:47;2.20;99.90
29453;DHT22;16424;50.956;5.320;2023-02-28T07:27:12;2.40;99.90
29453;DHT22;16424;50.956;5.320;2023-02-28T07:29:51;2.60;99.90
29453;DHT22;16424;50.956;5.320;2023-02-28T07:32:18;2.60;99.90
29453;DHT22;16424;50.956;5.320;2023-02-28T07:34:44;2.70;99.90
29453;DHT22;16424;50.956;5.320;2023-02-28T07:37:10;2.40;99.90
29453;DHT22;16424;50.956;5.320;2023-02-28T07:39:35;2.80;99.90
29453;DHT22;16424;50.956;5.320;2023-02-28T07:42:04;2.90;99.90
29453;DHT22;16424;50.956;5.320;2023-02-28T07:44:31;3.20;99.90
29453;DHT22;16424;50.956;5.320;2023-02-28T07:46:57;3.40;99.90
29453;DHT22;16424;50.956;5.320;2023-02-28T07:49:23;3.60;99.90
29453;DHT22;16424;50.956;5.320;2023-02-28T07:51:49;3.90;99.90
29453;DHT22;16424;50.956;5.320;2023-02-28T07:54:14;4.00;99.90
29453;DHT22;16424;50.956;5.320;2023-02-28T07:56:40;3.80;99.90
29453;DHT22;16424;50.956;5.320;2023-02-28T07:59:06;4.00;99.90
29453;DHT22;16424;50.956;5.320;2023-02-28T08:01:31;3.80;99.90
29453;DHT22;16424;50.956;5.320;2023-02-28T08:03:57;4.00;99.90
29453;DHT22;16424;50.956;5.320;2023-02-28T08:06:24;4.30;99.90
29453;DHT22;16424;50.956;5.320;2023-02-28T08:08:50;4.50;99.90
29453;DHT22;16424;50.956;5.320;2023-02-28T08:11:17;4.90;99.90
29453;DHT22;16424;50.956;5.320;2023-02-28T08:13:43;5.00;99.90
29453;DHT22;16424;50.956;5.320;2023-02-28T08:16:10;5.00;99.90
29453;DHT22;16424;50.956;5.320;2023-02-28T08:18:36;4.40;99.90
29453;DHT22;16424;50.956;5.320;2023-02-28T08:21:09;4.40;99.90
29453;DHT22;16424;50.956;5.320;2023-02-28T08:23:35;4.30;99.90
29453;DHT22;16424;50.956;5.320;2023-02-28T08:26:01;4.60;99.90
29453;DHT22;16424;50.956;5.320;2023-02-28T08:28:27;5.10;99.90
29453;DHT22;16424;50.956;5.320;2023-02-28T08:30:52;5.50;99.90
29453;DHT22;16424;50.956;5.320;2023-02-28T08:33:19;5.00;99.90
29453;DHT22;16424;50.956;5.320;2023-02-28T08:35:44;4.70;99.90
29453;DHT22;16424;50.956;5.320;2023-02-28T08:38:10;4.40;99.90
29453;DHT22;16424;50.956;5.320;2023-02-28T08:40:35;5.00;99.90
29453;DHT22;16424;50.956;5.320;2023-02-28T08:43:01;5.30;99.90
29453;DHT22;16424;50.956;5.320;2023-02-28T08:45:27;5.20;99.90
29453;DHT22;16424;50.956;5.320;2023-02-28T08:47:54;4.90;99.90
29453;DHT22;16424;50.956;5.320;2023-02-28T08:50:20;4.70;99.90
29453;DHT22;16424;50.956;5.320;2023-02-28T08:52:46;5.30;99.90
29453;DHT22;16424;50.956;5.320;2023-02-28T08:55:12;5.20;99.90
29453;DHT22;16424;50.956;5.320;2023-02-28T08:57:38;5.30;99.90
29453;DHT22;16424;50.956;5.320;2023-02-28T09:00:04;5.40;99.90
29453;DHT22;16424;50.956;5.320;2023-02-28T09:02:32;5.40;99.90
29453;DHT22;16424;50.956;5.320;2023-02-28T09:04:58;5.20;99.90
29453;DHT22;16424;50.956;5.320;2023-02-28T09:07:24;5.40;99.90
29453;DHT22;16424;50.956;5.320;2023-02-28T09:09:50;5.90;99.90
29453;DHT22;16424;50.956;5.320;2023-02-28T09:12:27;5.60;99.90
29453;DHT22;16424;50.956;5.320;2023-02-28T09:14:57;5.90;99.90
29453;DHT22;16424;50.956;5.320;2023-02-28T09:17:22;6.10;99.90
29453;DHT22;16424;50.956;5.320;2023-02-28T09:19:48;6.40;99.90
29453;DHT22;16424;50.956;5.320;2023-02-28T09:22:14;6.70;99.90
29453;DHT22;16424;50.956;5.320;2023-02-28T09:24:40;6.90;99.90
29453;DHT22;16424;50.956;5.320;2023-02-28T09:27:06;6.80;99.90
29453;DHT22;16424;50.956;5.320;2023-02-28T09:29:33;6.70;99.90
29453;DHT22;16424;50.956;5.320;2023-02-28T09:31:59;6.70;99.90
29453;DHT22;16424;50.956;5.320;2023-02-28T09:34:26;6.30;99.90
29453;DHT22;16424;50.956;5.320;2023-02-28T09:36:52;6.10;99.90
29453;DHT22;16424;50.956;5.320;2023-02-28T09:39:21;5.90;99.90
29453;DHT22;16424;50.956;5.320;2023-02-28T09:41:50;5.60;99.90
29453;DHT22;16424;50.956;5.320;2023-02-28T09:49:44;6.00;99.90
29453;DHT22;16424;50.956;5.320;2023-02-28T09:52:18;6.20;99.90
29453;DHT22;16424;50.956;5.320;2023-02-28T09:54:45;5.80;99.90
29453;DHT22;16424;50.956;5.320;2023-02-28T09:57:32;5.60;99.90
29453;DHT22;16424;50.956;5.320;2023-02-28T10:02:56;5.60;99.90
29453;DHT22;16424;50.956;5.320;2023-02-28T10:05:43;5.80;99.90
29453;DHT22;16424;50.956;5.320;2023-02-28T10:08:40;6.10;99.90
29453;DHT22;16424;50.956;5.320;2023-02-28T10:11:14;6.10;99.90
29453;DHT22;16424;50.956;5.320;2023-02-28T10:16:40;6.00;99.90
29453;DHT22;16424;50.956;5.320;2023-02-28T10:19:26;5.60;99.90
29453;DHT22;16424;50.956;5.320;2023-02-28T10:22:05;5.60;99.90
29453;DHT22;16424;50.956;5.320;2023-02-28T10:24:42;5.50;99.90
29453;DHT22;16424;50.956;5.320;2023-02-28T10:29:50;5.60;99.90
29453;DHT22;16424;50.956;5.320;2023-02-28T10:32:22;5.70;99.90
29453;DHT22;16424;50.956;5.320;2023-02-28T10:35:17;5.50;99.90
29453;DHT22;16424;50.956;5.320;2023-02-28T10:37:46;5.30;99.90
29453;DHT22;16424;50.956;5.320;2023-02-28T10:40:33;5.30;99.90
29453;DHT22;16424;50.956;5.320;2023-02-28T10:45:38;5.30;99.90
29453;DHT22;16424;50.956;5.320;2023-02-28T11:01:41;4.80;99.80
29453;DHT22;16424;50.956;5.320;2023-02-28T11:06:48;5.30;98.80
29453;DHT22;16424;50.956;5.320;2023-02-28T11:12:05;5.20;98.50
29453;DHT22;16424;50.956;5.320;2023-02-28T11:14:35;5.30;99.10
29453;DHT22;16424;50.956;5.320;2023-02-28T11:17:34;5.40;98.40
29453;DHT22;16424;50.956;5.320;2023-02-28T11:20:04;5.40;98.40
29453;DHT22;16424;50.956;5.320;2023-02-28T11:22:38;5.30;98.30
29453;DHT22;16424;50.956;5.320;2023-02-28T11:25:16;5.40;98.80
29453;DHT22;16424;50.956;5.320;2023-02-28T11:27:49;5.60;98.20
29453;DHT22;16424;50.956;5.320;2023-02-28T11:32:53;5.60;98.10
29453;DHT22;16424;50.956;5.320;2023-02-28T11:35:30;5.60;98.10
29453;DHT22;16424;50.956;5.320;2023-02-28T11:37:57;5.50;97.70
29453;DHT22;16424;50.956;5.320;2023-02-28T11:48:52;5.80;97.20
29453;DHT22;16424;50.956;5.320;2023-02-28T11:51:34;5.70;97.80
29453;DHT22;16424;50.956;5.320;2023-02-28T12:03:16;5.60;97.30
29453;DHT22;16424;50.956;5.320;2023-02-28T12:05:46;5.60;97.70
29453;DHT22;16424;50.956;5.320;2023-02-28T12:08:19;5.70;97.90
29453;DHT22;16424;50.956;5.320;2023-02-28T12:13:29;5.80;97.80
29453;DHT22;16424;50.956;5.320;2023-02-28T12:19:13;6.10;97.80
29453;DHT22;16424;50.956;5.320;2023-02-28T12:24:52;6.00;97.20
29453;DHT22;16424;50.956;5.320;2023-02-28T12:27:23;6.10;97.30
29453;DHT22;16424;50.956;5.320;2023-02-28T12:30:08;6.10;97.10
29453;DHT22;16424;50.956;5.320;2023-02-28T12:32:44;6.20;97.50
29453;DHT22;16424;50.956;5.320;2023-02-28T12:35:18;6.30;97.40
29453;DHT22;16424;50.956;5.320;2023-02-28T12:37:58;6.30;97.40
29453;DHT22;16424;50.956;5.320;2023-02-28T12:40:33;6.30;97.00
29453;DHT22;16424;50.956;5.320;2023-02-28T12:43:04;6.20;97.50
29453;DHT22;16424;50.956;5.320;2023-02-28T12:45:51;6.00;97.40
29453;DHT22;16424;50.956;5.320;2023-02-28T12:48:27;6.10;96.90
29453;DHT22;16424;50.956;5.320;2023-02-28T12:50:55;6.10;97.10
29453;DHT22;16424;50.956;5.320;2023-02-28T12:53:57;6.00;96.90
29453;DHT22;16424;50.956;5.320;2023-02-28T12:56:48;6.00;97.20
29453;DHT22;16424;50.956;5.320;2023-02-28T12:59:34;6.10;97.00
29453;DHT22;16424;50.956;5.320;2023-02-28T13:09:54;6.30;97.10
29453;DHT22;16424;50.956;5.320;2023-02-28T13:12:21;6.40;96.60
29453;DHT22;16424;50.956;5.320;2023-02-28T13:14:48;6.30;96.80
29453;DHT22;16424;50.956;5.320;2023-02-28T13:17:23;6.40;96.60
29453;DHT22;16424;50.956;5.320;2023-02-28T13:22:44;6.60;96.70
29453;DHT22;16424;50.956;5.320;2023-02-28T13:27:52;6.50;96.50
29453;DHT22;16424;50.956;5.320;2023-02-28T13:35:46;6.70;96.90
29453;DHT22;16424;50.956;5.320;2023-02-28T13:38:33;6.80;97.20
29453;DHT22;16424;50.956;5.320;2023-02-28T13:57:00;6.80;97.20
29453;DHT22;16424;50.956;5.320;2023-02-28T13:59:51;6.60;96.70
29453;DHT22;16424;50.956;5.320;2023-02-28T14:02:32;6.60;97.70
29453;DHT22;16424;50.956;5.320;2023-02-28T14:05:05;6.40;97.10
29453;DHT22;16424;50.956;5.320;2023-02-28T14:07:38;6.40;97.40
29453;DHT22;16424;50.956;5.320;2023-02-28T14:10:08;6.50;97.90
29453;DHT22;16424;50.956;5.320;2023-02-28T14:15:41;6.80;98.40
29453;DHT22;16424;50.956;5.320;2023-02-28T14:18:25;7.10;98.30
29453;DHT22;16424;50.956;5.320;2023-02-28T14:32:01;6.70;98.20
29453;DHT22;16424;50.956;5.320;2023-02-28T14:34:58;6.70;98.30
29453;DHT22;16424;50.956;5.320;2023-02-28T14:37:32;6.60;98.40
29453;DHT22;16424;50.956;5.320;2023-02-28T14:39:59;6.60;98.50
29453;DHT22;16424;50.956;5.320;2023-02-28T14:42:56;6.70;98.20
29453;DHT22;16424;50.956;5.320;2023-02-28T14:45:22;6.70;98.30
29453;DHT22;16424;50.956;5.320;2023-02-28T14:47:52;6.70;97.90
29453;DHT22;16424;50.956;5.320;2023-02-28T14:50:23;6.70;98.20
29453;DHT22;16424;50.956;5.320;2023-02-28T14:52:53;6.80;98.20
29453;DHT22;16424;50.956;5.320;2023-02-28T14:55:24;6.90;98.10
29453;DHT22;16424;50.956;5.320;2023-02-28T14:57:59;6.90;98.20
29453;DHT22;16424;50.956;5.320;2023-02-28T15:00:29;6.80;98.10
29453;DHT22;16424;50.956;5.320;2023-02-28T15:02:59;6.60;98.00
29453;DHT22;16424;50.956;5.320;2023-02-28T15:05:31;6.50;98.10
29453;DHT22;16424;50.956;5.320;2023-02-28T15:08:15;6.40;98.40
29453;DHT22;16424;50.956;5.320;2023-02-28T15:10:50;6.50;98.50
29453;DHT22;16424;50.956;5.320;2023-02-28T15:13:16;6.50;98.40
29453;DHT22;16424;50.956;5.320;2023-02-28T15:18:21;6.50;98.40
29453;DHT22;16424;50.956;5.320;2023-02-28T15:20:49;6.50;98.20
29453;DHT22;16424;50.956;5.320;2023-02-28T15:23:16;6.20;98.20
29453;DHT22;16424;50.956;5.320;2023-02-28T15:25:43;6.30;98.50
29453;DHT22;16424;50.956;5.320;2023-02-28T15:28:14;6.30;98.40
29453;DHT22;16424;50.956;5.320;2023-02-28T15:30:55;6.50;98.40
29453;DHT22;16424;50.956;5.320;2023-02-28T15:33:23;6.40;98.10
29453;DHT22;16424;50.956;5.320;2023-02-28T15:35:51;6.30;97.80
29453;DHT22;16424;50.956;5.320;2023-02-28T15:38:25;6.00;98.50
29453;DHT22;16424;50.956;5.320;2023-02-28T15:40:57;6.10;98.80
29453;DHT22;16424;50.956;5.320;2023-02-28T15:43:31;6.20;98.60
29453;DHT22;16424;50.956;5.320;2023-02-28T15:46:04;6.30;98.40
29453;DHT22;16424;50.956;5.320;2023-02-28T15:48:50;6.30;98.20
29453;DHT22;16424;50.956;5.320;2023-02-28T15:51:36;6.50;98.20
29453;DHT22;16424;50.956;5.320;2023-02-28T15:54:07;6.20;98.10
29453;DHT22;16424;50.956;5.320;2023-02-28T15:56:43;6.20;98.80
29453;DHT22;16424;50.956;5.320;2023-02-28T15:59:16;6.30;98.70
29453;DHT22;16424;50.956;5.320;2023-02-28T16:01:43;6.30;98.80
29453;DHT22;16424;50.956;5.320;2023-02-28T16:04:18;6.20;98.80
29453;DHT22;16424;50.956;5.320;2023-02-28T16:06:45;6.20;99.10
29453;DHT22;16424;50.956;5.320;2023-02-28T16:09:14;6.20;99.00
29453;DHT22;16424;50.956;5.320;2023-02-28T16:11:50;5.90;99.20
29453;DHT22;16424;50.956;5.320;2023-02-28T16:14:19;5.90;99.40
29453;DHT22;16424;50.956;5.320;2023-02-28T16:16:48;6.00;99.30
29453;DHT22;16424;50.956;5.320;2023-02-28T16:19:14;6.10;99.20
29453;DHT22;16424;50.956;5.320;2023-02-28T16:21:40;6.10;99.10
29453;DHT22;16424;50.956;5.320;2023-02-28T16:24:06;6.00;98.90
29453;DHT22;16424;50.956;5.320;2023-02-28T16:26:32;5.90;98.80
29453;DHT22;16424;50.956;5.320;2023-02-28T16:29:03;6.00;99.00
29453;DHT22;16424;50.956;5.320;2023-02-28T16:31:29;6.00;99.40
29453;DHT22;16424;50.956;5.320;2023-02-28T16:33:55;6.00;99.10
29453;DHT22;16424;50.956;5.320;2023-02-28T16:36:23;6.10;98.90
29453;DHT22;16424;50.956;5.320;2023-02-28T16:38:52;6.20;98.70
29453;DHT22;16424;50.956;5.320;2023-02-28T16:41:22;6.00;98.70
29453;DHT22;16424;50.956;5.320;2023-02-28T16:43:52;5.90;98.90
29453;DHT22;16424;50.956;5.320;2023-02-28T16:46:18;5.80;99.10
29453;DHT22;16424;50.956;5.320;2023-02-28T16:48:45;5.70;99.20
29453;DHT22;16424;50.956;5.320;2023-02-28T16:51:14;5.60;99.30
29453;DHT22;16424;50.956;5.320;2023-02-28T16:53:40;5.60;99.70
29453;DHT22;16424;50.956;5.320;2023-02-28T16:56:08;5.70;99.60
29453;DHT22;16424;50.956;5.320;2023-02-28T16:58:36;5.60;99.70
29453;DHT22;16424;50.956;5.320;2023-02-28T17:01:03;5.80;99.80
29453;DHT22;16424;50.956;5.320;2023-02-28T17:03:28;6.00;99.70
29453;DHT22;16424;50.956;5.320;2023-02-28T17:05:54;5.80;99.80
29453;DHT22;16424;50.956;5.320;2023-02-28T17:08:20;5.80;99.90
29453;DHT22;16424;50.956;5.320;2023-02-28T17:10:46;5.90;99.90
29453;DHT22;16424;50.956;5.320;2023-02-28T17:13:13;5.90;99.90
29453;DHT22;16424;50.956;5.320;2023-02-28T17:15:39;6.00;99.90
29453;DHT22;16424;50.956;5.320;2023-02-28T17:18:06;6.00;99.90
29453;DHT22;16424;50.956;5.320;2023-02-28T17:20:32;5.90;99.90
29453;DHT22;16424;50.956;5.320;2023-02-28T17:22:58;5.90;99.90
29453;DHT22;16424;50.956;5.320;2023-02-28T17:25:24;5.70;99.90
29453;DHT22;16424;50.956;5.320;2023-02-28T17:27:50;5.70;99.90
29453;DHT22;16424;50.956;5.320;2023-02-28T17:30:21;5.60;99.90
29453;DHT22;16424;50.956;5.320;2023-02-28T17:32:47;5.60;99.90
29453;DHT22;16424;50.956;5.320;2023-02-28T17:35:14;5.50;99.90
29453;DHT22;16424;50.956;5.320;2023-02-28T17:37:40;5.50;99.90
29453;DHT22;16424;50.956;5.320;2023-02-28T17:40:21;5.40;99.90
29453;DHT22;16424;50.956;5.320;2023-02-28T17:42:47;5.40;99.90
29453;DHT22;16424;50.956;5.320;2023-02-28T17:45:14;5.30;99.90
29453;DHT22;16424;50.956;5.320;2023-02-28T17:47:42;5.30;99.90
29453;DHT22;16424;50.956;5.320;2023-02-28T17:50:17;5.20;99.90
29453;DHT22;16424;50.956;5.320;2023-02-28T17:52:43;5.20;99.90
29453;DHT22;16424;50.956;5.320;2023-02-28T17:55:10;5.10;99.90
29453;DHT22;16424;50.956;5.320;2023-02-28T17:57:36;5.00;99.90
29453;DHT22;16424;50.956;5.320;2023-02-28T18:00:02;4.90;99.90
29453;DHT22;16424;50.956;5.320;2023-02-28T18:02:32;4.70;99.90
29453;DHT22;16424;50.956;5.320;2023-02-28T18:04:57;4.60;99.90
29453;DHT22;16424;50.956;5.320;2023-02-28T18:07:24;4.50;99.90
29453;DHT22;16424;50.956;5.320;2023-02-28T18:09:50;4.40;99.90
29453;DHT22;16424;50.956;5.320;2023-02-28T18:12:15;4.20;99.90
29453;DHT22;16424;50.956;5.320;2023-02-28T18:14:41;4.00;99.90
29453;DHT22;16424;50.956;5.320;2023-02-28T18:17:09;3.90;99.90
29453;DHT22;16424;50.956;5.320;2023-02-28T18:19:35;3.80;99.90
29453;DHT22;16424;50.956;5.320;2023-02-28T18:22:01;3.70;99.90
29453;DHT22;16424;50.956;5.320;2023-02-28T18:24:26;3.60;99.90
29453;DHT22;16424;50.956;5.320;2023-02-28T18:26:52;3.60;99.90
29453;DHT22;16424;50.956;5.320;2023-02-28T18:29:23;3.60;99.90
29453;DHT22;16424;50.956;5.320;2023-02-28T18:31:50;3.50;99.90
29453;DHT22;16424;50.956;5.320;2023-02-28T18:34:16;3.60;99.90
29453;DHT22;16424;50.956;5.320;2023-02-28T18:36:41;3.60;99.90
29453;DHT22;16424;50.956;5.320;2023-02-28T18:39:08;3.60;99.90
29453;DHT22;16424;50.956;5.320;2023-02-28T18:41:36;3.60;99.90